Time;durP1;ratioP1;P1;durP2;ratioP2;P2;SDS_P1;SDS_P2;PMS_P1;PMS_P2;Temp;Humidity;BMP_temperature;BMP_pressure;BME280_temperature;BME280_humidity;BME280_pressure;Samples;Min_cycle;Max_cycle;Signal;HPM_P1;HPM_P2
2023/07/11 00:02:24;;;;;;;4.28;2.50;;;23.50;90.20;;;;;;5074442;28;20090;-92
2023/07/11 00:04:50;;;;;;;4.65;2.70;;;23.40;90.30;;;;;;5073499;28;20036;-93
2023/07/11 00:07:15;;;;;;;4.35;2.80;;;23.40;90.30;;;;;;5073153;28;20016;-88
2023/07/11 00:09:46;;;;;;;3.40;2.63;;;23.40;90.20;;;;;;5072815;28;20021;-88
2023/07/11 00:12:12;;;;;;;4.50;2.90;;;23.50;90.30;;;;;;5073240;28;20028;-94
2023/07/11 00:14:37;;;;;;;3.88;2.15;;;23.40;90.50;;;;;;5072828;28;20071;-89
2023/07/11 00:17:05;;;;;;;4.28;2.60;;;23.30;90.40;;;;;;5073055;28;20017;-94
2023/07/11 00:19:44;;;;;;;3.92;2.75;;;23.30;90.60;;;;;;5072538;28;20024;-90
2023/07/11 00:22:10;;;;;;;5.32;2.30;;;23.20;90.70;;;;;;5074251;28;20016;-93
2023/07/11 00:24:36;;;;;;;4.82;2.50;;;23.10;91.10;;;;;;5073333;28;20070;-93
2023/07/11 00:27:01;;;;;;;4.40;2.40;;;23.00;91.30;;;;;;5072814;28;20055;-90
2023/07/11 00:29:27;;;;;;;4.65;2.55;;;23.00;91.40;;;;;;5072341;28;20032;-89
2023/07/11 00:31:52;;;;;;;3.80;2.60;;;23.00;91.50;;;;;;5072939;28;20027;-87
2023/07/11 00:34:18;;;;;;;4.47;2.50;;;23.00;91.70;;;;;;5071981;28;20019;-86
2023/07/11 00:36:43;;;;;;;5.07;3.08;;;23.00;91.70;;;;;;5072924;28;20499;-88
2023/07/11 00:39:12;;;;;;;5.30;2.95;;;23.00;92.00;;;;;;5073067;28;20047;-88
2023/07/11 00:41:38;;;;;;;4.80;2.83;;;23.10;91.70;;;;;;5072923;28;20509;-90
2023/07/11 00:44:11;;;;;;;3.25;2.58;;;23.00;91.70;;;;;;5073195;28;20016;-88
2023/07/11 00:46:37;;;;;;;4.93;2.85;;;23.10;91.80;;;;;;5073789;28;20032;-90
2023/07/11 00:49:03;;;;;;;3.70;2.42;;;23.00;92.00;;;;;;5078824;28;20029;-87
2023/07/11 00:51:52;;;;;;;3.92;2.80;;;23.00;92.00;;;;;;5076390;28;20036;-89
2023/07/11 00:54:21;;;;;;;3.72;2.60;;;23.00;92.10;;;;;;5077707;28;20016;-85
2023/07/11 00:56:48;;;;;;;7.28;2.95;;;23.00;92.20;;;;;;5076301;28;20031;-89
2023/07/11 00:59:16;;;;;;;5.45;2.85;;;22.90;92.10;;;;;;5077059;28;20029;-88
2023/07/11 01:01:50;;;;;;;4.97;2.55;;;22.80;92.40;;;;;;5076844;28;20044;-88
2023/07/11 01:04:19;;;;;;;4.95;2.63;;;22.70;92.70;;;;;;5076502;28;20027;-84
2023/07/11 01:06:45;;;;;;;3.97;2.50;;;22.50;93.20;;;;;;5078296;28;20040;-88
2023/07/11 01:09:12;;;;;;;4.88;2.53;;;22.50;93.40;;;;;;5076550;28;20074;-88
2023/07/11 01:12:01;;;;;;;2.95;2.53;;;22.40;93.60;;;;;;5075974;28;20052;-88
2023/07/11 01:14:27;;;;;;;4.32;2.92;;;22.40;93.60;;;;;;5075669;28;20055;-87
2023/07/11 01:16:53;;;;;;;3.95;2.60;;;22.50;93.50;;;;;;5076388;28;20310;-88
2023/07/11 01:19:20;;;;;;;5.45;2.95;;;22.50;93.60;;;;;;5083770;28;20059;-85
2023/07/11 01:21:46;;;;;;;4.20;2.58;;;22.50;93.80;;;;;;5087316;28;20024;-88
2023/07/11 01:24:12;;;;;;;3.78;2.70;;;22.50;93.70;;;;;;5080245;28;20028;-88
2023/07/11 01:26:38;;;;;;;5.10;2.90;;;22.50;93.40;;;;;;5079564;28;20200;-88
2023/07/11 01:29:04;;;;;;;4.05;2.60;;;22.50;93.30;;;;;;5078817;28;20029;-88
2023/07/11 01:31:33;;;;;;;3.80;2.38;;;22.50;93.50;;;;;;5077441;28;20024;-87
2023/07/11 01:34:03;;;;;;;5.50;3.13;;;22.40;93.70;;;;;;5076633;28;20107;-87
2023/07/11 01:36:29;;;;;;;5.53;2.88;;;22.30;93.90;;;;;;5076106;28;20048;-87
2023/07/11 01:38:57;;;;;;;4.25;2.90;;;22.30;93.80;;;;;;5076977;28;20021;-87
2023/07/11 01:41:23;;;;;;;3.63;2.50;;;22.30;94.00;;;;;;5076837;28;20017;-86
2023/07/11 01:43:49;;;;;;;5.15;2.95;;;22.30;94.10;;;;;;5077669;28;20072;-88
2023/07/11 01:46:14;;;;;;;3.45;2.40;;;22.30;94.30;;;;;;5077348;28;20465;-87
2023/07/11 01:48:40;;;;;;;4.10;2.58;;;22.20;94.60;;;;;;5077908;28;20024;-87
2023/07/11 01:51:06;;;;;;;4.93;2.85;;;22.20;94.90;;;;;;5083426;28;20021;-88
2023/07/11 01:53:31;;;;;;;4.25;2.92;;;22.10;94.70;;;;;;5088339;28;20112;-87
2023/07/11 01:55:59;;;;;;;6.57;2.70;;;22.10;94.60;;;;;;5082383;28;20033;-87
2023/07/11 01:58:25;;;;;;;4.07;2.65;;;22.10;94.60;;;;;;5075216;28;20048;-86
2023/07/11 02:00:50;;;;;;;3.25;2.53;;;22.10;94.90;;;;;;5077111;28;20460;-87
2023/07/11 02:03:16;;;;;;;3.70;2.72;;;22.10;95.00;;;;;;5074533;28;20108;-88
2023/07/11 02:05:41;;;;;;;4.13;3.15;;;22.10;95.10;;;;;;5074303;28;20052;-89
2023/07/11 02:08:07;;;;;;;4.43;2.47;;;22.10;95.20;;;;;;5075767;28;20358;-89
2023/07/11 02:10:32;;;;;;;4.47;2.95;;;22.00;95.30;;;;;;5074473;28;20025;-89
2023/07/11 02:12:58;;;;;;;3.50;2.53;;;22.00;95.60;;;;;;5075370;28;20013;-89
2023/07/11 02:15:24;;;;;;;6.80;2.80;;;22.00;95.50;;;;;;5074367;28;20412;-88
2023/07/11 02:17:49;;;;;;;4.68;2.90;;;22.00;95.40;;;;;;5075477;28;20021;-91
2023/07/11 02:20:15;;;;;;;6.13;3.53;;;22.00;95.40;;;;;;5077461;28;20043;-91
2023/07/11 02:22:41;;;;;;;6.07;2.90;;;22.00;95.50;;;;;;5075187;28;20020;-90
2023/07/11 02:25:07;;;;;;;3.53;2.90;;;22.00;95.50;;;;;;5074400;28;20029;-89
2023/07/11 02:27:32;;;;;;;4.53;2.58;;;22.00;95.60;;;;;;5073481;28;20386;-90
2023/07/11 02:29:58;;;;;;;3.35;2.70;;;22.00;95.70;;;;;;5074515;28;20473;-90
2023/07/11 02:32:24;;;;;;;6.68;2.83;;;22.00;95.80;;;;;;5075295;28;20017;-85
2023/07/11 02:34:50;;;;;;;4.03;3.00;;;22.00;95.90;;;;;;5076104;28;20495;-90
2023/07/11 02:37:15;;;;;;;4.90;2.92;;;22.00;96.00;;;;;;5074708;28;20020;-90
2023/07/11 02:39:41;;;;;;;4.53;2.83;;;22.00;96.00;;;;;;5076139;28;20448;-87
2023/07/11 02:42:07;;;;;;;4.82;2.53;;;21.90;96.10;;;;;;5073545;28;20028;-87
2023/07/11 02:44:33;;;;;;;3.50;2.70;;;21.90;96.20;;;;;;5072948;28;20040;-86
2023/07/11 02:46:58;;;;;;;4.38;2.53;;;21.90;96.20;;;;;;5075309;28;20034;-87
2023/07/11 02:49:24;;;;;;;4.25;2.75;;;21.90;96.20;;;;;;5072835;28;20501;-83
2023/07/11 02:51:49;;;;;;;4.35;2.83;;;21.90;96.40;;;;;;5074721;28;20025;-88
2023/07/11 02:54:15;;;;;;;4.55;2.78;;;21.80;96.60;;;;;;5073360;28;20024;-87
2023/07/11 02:56:41;;;;;;;5.13;2.78;;;21.70;96.70;;;;;;5073929;28;20091;-90
2023/07/11 02:59:06;;;;;;;6.25;3.03;;;21.70;96.90;;;;;;5074274;28;20437;-90
2023/07/11 03:01:33;;;;;;;3.25;2.70;;;21.70;96.70;;;;;;5073073;28;20020;-89
2023/07/11 03:04:00;;;;;;;6.28;3.05;;;21.70;96.80;;;;;;5073954;28;20503;-90
2023/07/11 03:06:25;;;;;;;4.07;2.80;;;21.70;96.70;;;;;;5073449;28;20032;-85
2023/07/11 03:08:51;;;;;;;5.07;2.72;;;21.60;96.70;;;;;;5073890;28;20055;-89
2023/07/11 03:11:17;;;;;;;5.43;3.15;;;21.60;96.80;;;;;;5073080;28;20044;-89
2023/07/11 03:13:43;;;;;;;5.43;3.25;;;21.50;96.90;;;;;;5073838;28;20032;-89
2023/07/11 03:16:08;;;;;;;3.75;3.00;;;21.60;97.00;;;;;;5076633;28;20078;-89
2023/07/11 03:18:34;;;;;;;5.20;2.95;;;21.60;96.90;;;;;;5073563;28;20342;-88
2023/07/11 03:21:01;;;;;;;4.13;3.20;;;21.60;96.90;;;;;;5073628;28;20035;-89
2023/07/11 03:23:28;;;;;;;5.40;3.10;;;21.60;97.10;;;;;;5073319;28;20046;-85
2023/07/11 03:25:54;;;;;;;5.18;2.90;;;21.60;97.10;;;;;;5073257;28;20058;-89
2023/07/11 03:28:20;;;;;;;4.68;3.03;;;21.60;97.00;;;;;;5073786;28;20450;-89
2023/07/11 03:30:47;;;;;;;3.65;2.70;;;21.50;96.90;;;;;;5072684;28;20028;-89
2023/07/11 03:33:13;;;;;;;5.78;3.20;;;21.50;96.90;;;;;;5073304;28;20052;-89
2023/07/11 03:35:38;;;;;;;4.30;2.67;;;21.50;97.00;;;;;;5073419;28;20070;-89
2023/07/11 03:38:04;;;;;;;4.00;2.83;;;21.40;97.20;;;;;;5074497;28;20496;-89
2023/07/11 03:40:30;;;;;;;5.43;3.25;;;21.50;97.20;;;;;;5074086;28;20067;-89
2023/07/11 03:42:56;;;;;;;4.20;2.92;;;21.50;97.20;;;;;;5074216;28;20025;-89
2023/07/11 03:45:22;;;;;;;5.20;2.97;;;21.50;97.30;;;;;;5073492;28;20389;-89
2023/07/11 03:47:48;;;;;;;4.57;2.92;;;21.50;97.30;;;;;;5073306;28;20020;-90
2023/07/11 03:50:13;;;;;;;4.00;3.22;;;21.50;97.00;;;;;;5073982;28;20161;-90
2023/07/11 03:52:39;;;;;;;5.93;2.70;;;21.50;97.20;;;;;;5074346;28;20025;-91
2023/07/11 03:55:05;;;;;;;3.78;3.00;;;21.50;97.20;;;;;;5073760;28;20052;-91
2023/07/11 03:57:31;;;;;;;5.85;2.75;;;21.50;97.30;;;;;;5072899;28;20107;-90
2023/07/11 03:59:56;;;;;;;4.38;2.88;;;21.40;97.20;;;;;;5074430;28;20063;-90
2023/07/11 04:02:22;;;;;;;4.43;2.80;;;21.40;97.30;;;;;;5075310;28;20017;-90
2023/07/11 04:04:48;;;;;;;7.22;3.30;;;21.40;97.70;;;;;;5074914;28;20238;-90
2023/07/11 04:07:13;;;;;;;5.97;3.00;;;21.40;97.40;;;;;;5074982;28;20021;-90
2023/07/11 04:09:40;;;;;;;7.93;3.08;;;21.40;97.50;;;;;;5073658;28;20031;-90
2023/07/11 04:12:07;;;;;;;5.82;3.33;;;21.30;97.60;;;;;;5074694;28;20024;-91
2023/07/11 04:14:32;;;;;;;6.20;3.05;;;21.20;97.90;;;;;;5074032;28;20116;-89
2023/07/11 04:16:58;;;;;;;4.97;3.47;;;21.30;97.90;;;;;;5075375;28;20044;-89
2023/07/11 04:19:24;;;;;;;6.47;3.95;;;21.40;97.70;;;;;;5073515;28;20025;-90
2023/07/11 04:21:49;;;;;;;5.95;3.63;;;21.40;97.40;;;;;;5073727;28;20024;-90
2023/07/11 04:24:15;;;;;;;5.47;3.90;;;21.40;97.40;;;;;;5077962;28;20020;-90
2023/07/11 04:26:40;;;;;;;6.53;3.63;;;21.50;97.60;;;;;;5077450;28;20017;-91
2023/07/11 04:29:06;;;;;;;9.48;4.03;;;21.40;97.40;;;;;;5078513;28;20037;-91
2023/07/11 04:31:32;;;;;;;12.35;4.82;;;21.40;97.40;;;;;;5076172;28;20442;-89
2023/07/11 04:33:57;;;;;;;7.47;4.50;;;21.40;97.30;;;;;;5076665;28;20024;-91
2023/07/11 04:36:23;;;;;;;11.65;5.20;;;21.40;97.30;;;;;;5076894;28;20025;-91
2023/07/11 04:38:49;;;;;;;9.68;5.60;;;21.50;96.90;;;;;;5077472;28;20032;-91
2023/07/11 04:41:14;;;;;;;10.57;5.43;;;21.60;96.70;;;;;;5078270;28;20052;-91
2023/07/11 04:43:40;;;;;;;12.00;5.55;;;21.60;96.70;;;;;;5077939;28;20021;-90
2023/07/11 04:46:06;;;;;;;9.07;5.07;;;21.70;96.50;;;;;;5078100;28;20040;-91
2023/07/11 04:48:32;;;;;;;8.90;5.45;;;21.70;96.70;;;;;;5077992;28;20082;-86
2023/07/11 04:51:00;;;;;;;10.40;5.20;;;21.70;96.80;;;;;;5078075;28;20028;-91
2023/07/11 04:53:26;;;;;;;8.63;5.15;;;21.60;97.30;;;;;;5077318;28;20029;-91
2023/07/11 04:56:09;;;;;;;8.20;5.05;;;21.70;97.20;;;;;;5078596;28;20033;-91
2023/07/11 04:58:35;;;;;;;8.57;5.35;;;21.70;97.30;;;;;;5077902;28;20453;-90
2023/07/11 05:01:09;;;;;;;8.40;5.43;;;21.70;97.50;;;;;;5079965;28;20035;-90
2023/07/11 05:03:35;;;;;;;10.65;5.00;;;21.70;97.70;;;;;;5079470;28;20021;-88
2023/07/11 05:06:03;;;;;;;8.55;4.53;;;21.70;97.50;;;;;;5078047;28;20024;-92
2023/07/11 05:08:28;;;;;;;10.95;4.82;;;21.70;97.40;;;;;;5083858;28;20044;-92
2023/07/11 05:11:08;;;;;;;8.20;4.82;;;21.70;97.20;;;;;;5089803;28;20469;-91
2023/07/11 05:13:34;;;;;;;9.05;4.70;;;21.60;97.70;;;;;;5081319;28;20024;-86
2023/07/11 05:16:09;;;;;;;7.72;4.40;;;21.70;97.90;;;;;;5082071;28;20058;-91
2023/07/11 05:18:35;;;;;;;6.82;4.82;;;21.80;97.80;;;;;;5078519;28;20027;-89
2023/07/11 05:21:01;;;;;;;8.90;4.43;;;21.80;97.80;;;;;;5077786;28;20028;-91
2023/07/11 05:23:29;;;;;;;7.78;4.45;;;21.90;98.10;;;;;;5078538;28;20031;-91
2023/07/11 05:25:55;;;;;;;7.28;3.90;;;21.90;97.60;;;;;;5075487;28;20032;-91
2023/07/11 05:28:22;;;;;;;6.72;4.80;;;21.90;97.70;;;;;;5077455;28;20016;-92
2023/07/11 05:30:47;;;;;;;6.72;3.95;;;21.90;98.10;;;;;;5074995;28;20079;-91
2023/07/11 05:33:13;;;;;;;6.43;3.95;;;21.90;97.90;;;;;;5075072;28;20048;-90
2023/07/11 05:35:49;;;;;;;7.82;3.80;;;21.90;97.40;;;;;;5071415;28;20028;-89
2023/07/11 05:38:15;;;;;;;7.57;4.07;;;21.90;97.50;;;;;;5069193;28;20481;-91
2023/07/11 05:40:41;;;;;;;7.70;3.78;;;21.90;97.60;;;;;;5074511;28;20021;-91
2023/07/11 05:43:07;;;;;;;5.32;3.50;;;22.00;97.50;;;;;;5074538;28;20111;-91
2023/07/11 05:45:33;;;;;;;6.68;3.78;;;22.00;97.60;;;;;;5074734;28;20083;-88
2023/07/11 05:47:59;;;;;;;5.90;3.22;;;22.10;97.60;;;;;;5074559;28;20368;-91
2023/07/11 05:50:25;;;;;;;7.63;3.83;;;22.00;98.00;;;;;;5074950;28;20036;-90
2023/07/11 05:52:51;;;;;;;6.18;3.72;;;22.00;97.60;;;;;;5073985;28;20020;-90
2023/07/11 05:55:16;;;;;;;6.50;3.50;;;22.10;98.20;;;;;;5074486;28;20124;-91
2023/07/11 05:57:42;;;;;;;6.32;3.53;;;22.20;98.00;;;;;;5074992;28;20020;-91
2023/07/11 06:00:09;;;;;;;5.82;3.17;;;22.20;98.00;;;;;;5074625;28;20024;-91
2023/07/11 06:02:35;;;;;;;6.00;3.75;;;22.20;98.20;;;;;;5074471;28;20021;-90
2023/07/11 06:05:02;;;;;;;5.82;3.30;;;22.20;98.10;;;;;;5074838;28;20052;-93
2023/07/11 06:07:28;;;;;;;5.28;3.45;;;22.20;98.20;;;;;;5076065;28;20024;-92
2023/07/11 06:09:55;;;;;;;5.50;3.53;;;22.30;97.80;;;;;;5074153;28;20576;-93
2023/07/11 06:12:21;;;;;;;5.57;3.90;;;22.40;97.40;;;;;;5074115;28;20026;-93
2023/07/11 06:14:49;;;;;;;6.72;3.53;;;22.40;97.20;;;;;;5073861;28;20112;-92
2023/07/11 06:17:15;;;;;;;7.18;3.60;;;22.40;97.00;;;;;;5075326;28;20394;-92
2023/07/11 06:19:40;;;;;;;6.35;3.70;;;22.40;97.30;;;;;;5074099;28;20028;-92
2023/07/11 06:22:06;;;;;;;7.50;3.70;;;22.40;97.50;;;;;;5074211;28;20370;-92
2023/07/11 06:24:32;;;;;;;7.75;3.58;;;22.50;97.30;;;;;;5074421;28;20025;-92
2023/07/11 06:26:57;;;;;;;5.97;3.08;;;22.60;97.00;;;;;;5073892;28;20032;-92
2023/07/11 06:29:23;;;;;;;5.20;3.35;;;22.60;96.80;;;;;;5074114;28;20373;-92
2023/07/11 06:31:48;;;;;;;6.57;3.28;;;22.70;97.10;;;;;;5074274;28;20013;-92
2023/07/11 06:34:14;;;;;;;7.15;3.50;;;22.70;97.00;;;;;;5074070;28;20024;-92
2023/07/11 06:36:39;;;;;;;7.63;2.95;;;22.80;96.40;;;;;;5071413;28;20031;-91
2023/07/11 06:39:06;;;;;;;7.00;3.40;;;22.80;96.60;;;;;;5074112;28;20044;-91
2023/07/11 06:41:32;;;;;;;6.50;3.95;;;22.90;96.30;;;;;;5073559;28;20099;-92
2023/07/11 06:43:57;;;;;;;5.63;3.63;;;22.90;96.40;;;;;;5073625;28;20105;-91
2023/07/11 06:46:23;;;;;;;5.40;3.25;;;23.00;96.40;;;;;;5073271;28;20040;-91
2023/07/11 06:48:49;;;;;;;6.45;3.70;;;23.00;96.20;;;;;;5073114;28;20024;-91
2023/07/11 06:51:14;;;;;;;5.38;3.38;;;23.10;96.10;;;;;;5073604;28;20024;-90
2023/07/11 06:53:40;;;;;;;5.28;3.28;;;23.10;95.60;;;;;;5062299;28;20441;-89
2023/07/11 06:56:06;;;;;;;4.85;3.25;;;23.20;95.50;;;;;;5073101;28;20047;-87
2023/07/11 06:58:31;;;;;;;5.95;3.55;;;23.30;95.70;;;;;;5073561;28;20024;-88
2023/07/11 07:01:03;;;;;;;6.85;3.85;;;23.30;95.90;;;;;;5073847;28;20136;-89
2023/07/11 07:03:30;;;;;;;6.25;4.18;;;23.30;95.80;;;;;;5077370;28;20019;-89
2023/07/11 07:06:00;;;;;;;6.53;3.50;;;23.40;95.60;;;;;;5082342;28;20370;-89
2023/07/11 07:08:26;;;;;;;8.70;4.07;;;23.50;95.50;;;;;;5074085;28;20025;-90
2023/07/11 07:10:51;;;;;;;6.13;3.60;;;23.50;95.50;;;;;;5072754;28;20525;-89
2023/07/11 07:13:19;;;;;;;5.97;4.05;;;23.50;95.50;;;;;;5074424;28;20025;-90
2023/07/11 07:15:51;;;;;;;7.57;4.43;;;23.60;95.40;;;;;;5072530;28;20027;-88
2023/07/11 07:18:17;;;;;;;7.05;3.72;;;23.60;95.60;;;;;;5072560;28;20048;-87
2023/07/11 07:20:47;;;;;;;9.43;4.00;;;23.60;95.90;;;;;;5072103;28;20028;-87
2023/07/11 07:23:14;;;;;;;7.40;3.25;;;23.70;95.70;;;;;;5071813;28;20025;-86
2023/07/11 07:25:40;;;;;;;8.02;4.13;;;23.80;95.70;;;;;;5072536;28;20024;-84
2023/07/11 07:28:06;;;;;;;6.68;4.00;;;23.80;95.80;;;;;;5074776;28;20021;-87
2023/07/11 07:30:33;;;;;;;8.50;4.38;;;23.80;95.90;;;;;;5074108;28;20082;-87
2023/07/11 07:32:59;;;;;;;8.38;4.63;;;23.90;96.10;;;;;;5072585;28;20768;-87
2023/07/11 07:35:24;;;;;;;9.95;3.70;;;23.90;96.20;;;;;;5073708;28;20021;-86
2023/07/11 07:37:50;;;;;;;7.22;4.28;;;24.00;96.00;;;;;;5072155;28;20032;-87
2023/07/11 07:40:16;;;;;;;5.45;3.90;;;24.00;95.90;;;;;;5073387;28;20078;-90
2023/07/11 07:42:42;;;;;;;7.60;4.38;;;24.00;95.70;;;;;;5072400;28;20023;-89
2023/07/11 07:45:08;;;;;;;3.78;3.35;;;24.10;95.60;;;;;;5072940;28;20040;-89
2023/07/11 07:47:35;;;;;;;6.35;3.55;;;24.10;95.60;;;;;;5074025;28;20081;-89
2023/07/11 07:50:02;;;;;;;8.70;3.80;;;24.10;95.60;;;;;;5072494;28;20036;-89
2023/07/11 07:52:28;;;;;;;7.32;3.97;;;24.20;95.70;;;;;;5073729;28;20025;-90
2023/07/11 07:54:53;;;;;;;6.75;3.60;;;24.20;95.50;;;;;;5072498;28;20029;-90
2023/07/11 07:57:19;;;;;;;6.40;3.53;;;24.30;95.20;;;;;;5074317;28;20070;-90
2023/07/11 07:59:44;;;;;;;10.50;3.70;;;24.30;94.90;;;;;;5076538;28;20097;-88
2023/07/11 08:02:10;;;;;;;8.27;3.97;;;24.40;95.20;;;;;;5076627;28;20033;-88
2023/07/11 08:04:36;;;;;;;7.70;3.83;;;24.40;95.10;;;;;;5076858;28;20013;-88
2023/07/11 08:07:02;;;;;;;8.25;3.90;;;24.40;95.00;;;;;;5075521;28;20464;-89
2023/07/11 08:09:29;;;;;;;6.22;3.67;;;24.50;94.90;;;;;;5076273;28;20039;-88
2023/07/11 08:11:55;;;;;;;6.68;3.60;;;24.60;94.50;;;;;;5075583;28;20033;-86
2023/07/11 08:14:21;;;;;;;5.45;3.60;;;24.70;94.30;;;;;;5076098;28;20024;-87
2023/07/11 08:16:46;;;;;;;7.53;3.50;;;24.70;94.50;;;;;;5075417;28;20021;-86
2023/07/11 08:19:12;;;;;;;7.70;3.80;;;24.80;94.70;;;;;;5076342;28;20055;-87
2023/07/11 08:21:37;;;;;;;8.00;4.80;;;24.80;94.60;;;;;;5075956;28;20047;-83
2023/07/11 08:24:05;;;;;;;6.78;3.67;;;24.80;93.80;;;;;;5075622;28;20446;-86
2023/07/11 08:26:30;;;;;;;9.00;3.90;;;24.90;94.20;;;;;;5077216;28;20028;-88
2023/07/11 08:28:56;;;;;;;6.32;3.17;;;25.00;93.70;;;;;;5076483;28;20495;-89
2023/07/11 08:31:22;;;;;;;8.10;3.50;;;25.10;93.40;;;;;;5075680;28;20028;-87
2023/07/11 08:33:48;;;;;;;7.25;3.78;;;25.10;93.20;;;;;;5074057;28;20024;-87
2023/07/11 08:36:14;;;;;;;13.73;3.95;;;25.20;93.10;;;;;;5074803;28;20039;-88
2023/07/11 08:38:39;;;;;;;5.85;3.58;;;25.20;93.10;;;;;;5075708;28;20093;-86
2023/07/11 08:41:18;;;;;;;7.47;3.95;;;25.10;93.30;;;;;;5074932;28;20029;-84
2023/07/11 08:43:46;;;;;;;6.68;3.33;;;25.20;93.10;;;;;;5075739;28;20013;-85
2023/07/11 08:46:14;;;;;;;5.60;2.88;;;25.30;92.80;;;;;;5076020;28;20048;-86
2023/07/11 08:48:56;;;;;;;5.22;3.30;;;25.30;92.40;;;;;;5075999;28;20030;-84
2023/07/11 08:51:27;;;;;;;10.85;3.67;;;25.40;92.60;;;;;;5074640;28;20143;-89
2023/07/11 08:54:09;;;;;;;7.60;3.22;;;25.50;92.70;;;;;;5074443;28;20099;-89
2023/07/11 08:56:43;;;;;;;6.45;3.10;;;25.50;93.00;;;;;;5076382;28;20056;-91
2023/07/11 08:59:24;;;;;;;6.43;3.05;;;25.60;92.10;;;;;;5056872;28;20746;-91
2023/07/11 09:01:57;;;;;;;6.15;2.95;;;25.70;91.90;;;;;;5071026;28;20450;-91
2023/07/11 09:04:24;;;;;;;5.15;3.22;;;25.70;92.10;;;;;;5075647;28;20024;-89
2023/07/11 09:07:04;;;;;;;6.85;3.30;;;25.80;92.10;;;;;;5075159;28;20027;-88
2023/07/11 09:09:29;;;;;;;6.25;3.30;;;25.80;92.00;;;;;;5056067;28;20032;-92
2023/07/11 09:12:28;;;;;;;6.00;3.58;;;25.90;92.40;;;;;;5090221;28;20020;-90
2023/07/11 09:15:19;;;;;;;8.18;3.30;;;25.90;92.30;;;;;;5074724;28;20474;-89
2023/07/11 09:18:09;;;;;;;5.63;3.00;;;25.90;92.50;;;;;;5074221;28;20503;-86
2023/07/11 09:21:08;;;;;;;7.82;3.20;;;25.90;92.60;;;;;;5073028;28;20073;-89
2023/07/11 09:24:31;;;;;;;6.18;3.10;;;25.90;92.50;;;;;;5092641;28;20024;-89
2023/07/11 09:27:02;;;;;;;6.18;3.75;;;26.00;93.00;;;;;;5058875;28;20032;-91
2023/07/11 09:29:28;;;;;;;;;;;26.10;92.30;;;;;;5078853;28;20056;-90
2023/07/11 09:31:58;;;;;;;7.57;3.72;;;26.10;92.40;;;;;;5080604;28;19991;-91
2023/07/11 09:34:34;;;;;;;5.30;3.33;;;26.30;92.30;;;;;;5080216;28;20024;-94
2023/07/11 09:37:11;;;;;;;5.85;3.67;;;26.40;92.40;;;;;;5080411;28;20176;-94
2023/07/11 09:39:48;;;;;;;6.00;3.30;;;26.50;92.10;;;;;;5076846;28;20038;-95
2023/07/11 09:42:29;;;;;;;5.63;3.60;;;26.50;92.20;;;;;;5076905;28;20048;-93
2023/07/11 09:45:09;;;;;;;5.90;3.80;;;26.60;92.20;;;;;;5076749;28;20048;-95
2023/07/11 09:47:35;;;;;;;7.28;3.63;;;26.70;92.00;;;;;;5075712;28;20031;-92
2023/07/11 09:50:27;;;;;;;6.68;3.90;;;26.80;92.10;;;;;;5074686;28;20037;-93
2023/07/11 09:52:57;;;;;;;8.77;4.32;;;27.00;92.20;;;;;;5055586;28;20021;-94
2023/07/11 09:55:25;;;;;;;9.82;3.58;;;27.00;92.10;;;;;;5076363;28;20020;-93
2023/07/11 09:57:51;;;;;;;8.77;3.38;;;27.00;92.30;;;;;;5075963;28;20036;-93
2023/07/11 10:00:18;;;;;;;6.32;3.78;;;27.10;92.20;;;;;;5075149;28;20024;-92
2023/07/11 10:02:47;;;;;;;4.57;3.10;;;27.10;92.30;;;;;;5076443;28;20050;-92
2023/07/11 10:05:17;;;;;;;5.22;3.80;;;27.20;92.60;;;;;;5077702;28;20017;-92
2023/07/11 10:07:43;;;;;;;5.07;3.47;;;27.20;92.20;;;;;;5072231;28;20023;-87
2023/07/11 10:10:13;;;;;;;5.85;3.47;;;27.30;92.10;;;;;;5076169;28;20450;-94
2023/07/11 10:12:43;;;;;;;5.93;3.72;;;27.30;92.20;;;;;;5075348;28;20028;-86
2023/07/11 10:15:14;;;;;;;5.82;3.60;;;27.40;92.20;;;;;;5075642;28;20121;-91
2023/07/11 10:17:43;;;;;;;8.25;3.88;;;27.50;92.50;;;;;;5075916;28;20028;-91
2023/07/11 10:20:16;;;;;;;4.85;3.72;;;27.50;92.20;;;;;;5075130;28;20028;-90
2023/07/11 10:22:43;;;;;;;6.13;4.00;;;27.60;92.30;;;;;;5075645;28;20476;-87
2023/07/11 10:25:18;;;;;;;4.85;3.47;;;27.60;92.10;;;;;;5074014;28;20040;-92
2023/07/11 10:28:13;;;;;;;6.78;3.90;;;27.70;92.20;;;;;;5073897;28;20027;-86
2023/07/11 10:30:41;;;;;;;7.55;4.00;;;27.70;92.00;;;;;;5070934;28;20055;-90
2023/07/11 10:33:29;;;;;;;10.02;3.85;;;27.80;92.10;;;;;;5075900;28;20025;-90
2023/07/11 10:36:05;;;;;;;6.78;4.40;;;27.90;92.40;;;;;;5077238;28;20021;-91
2023/07/11 10:38:43;;;;;;;10.30;4.20;;;28.00;92.20;;;;;;5077727;28;20366;-88
2023/07/11 10:41:15;;;;;;;5.70;3.83;;;28.10;92.00;;;;;;5076260;28;20063;-89
2023/07/11 10:43:40;;;;;;;5.88;3.78;;;28.20;91.80;;;;;;5075494;28;20033;-91
2023/07/11 10:46:18;;;;;;;6.60;3.78;;;28.20;92.00;;;;;;5076951;28;20048;-90
2023/07/11 10:48:56;;;;;;;6.35;4.00;;;28.30;92.10;;;;;;5075332;28;20180;-90
2023/07/11 10:51:27;;;;;;;5.82;3.90;;;28.40;92.10;;;;;;5085068;28;20035;-89
2023/07/11 10:53:56;;;;;;;9.05;3.90;;;28.50;91.80;;;;;;5084748;28;20095;-86
2023/07/11 10:56:33;;;;;;;6.63;3.90;;;28.60;91.50;;;;;;5075148;28;20025;-88
2023/07/11 10:58:59;;;;;;;5.65;3.78;;;28.70;90.90;;;;;;5073300;28;20016;-88
2023/07/11 11:01:43;;;;;;;11.05;4.03;;;28.80;91.00;;;;;;5074937;28;20016;-93
2023/07/11 11:04:33;;;;;;;7.38;4.15;;;28.80;90.90;;;;;;5074401;28;20031;-90
2023/07/11 11:07:19;;;;;;;10.73;3.53;;;28.90;90.50;;;;;;5075276;28;20022;-92
2023/07/11 11:10:17;;;;;;;8.13;3.97;;;29.00;90.10;;;;;;5076770;28;20064;-90
2023/07/11 11:12:49;;;;;;;8.52;3.70;;;29.00;90.40;;;;;;5075265;28;20025;-86
2023/07/11 11:15:56;;;;;;;6.43;3.80;;;29.10;90.50;;;;;;5075417;28;20024;-90
2023/07/11 11:18:44;;;;;;;6.15;3.42;;;29.20;90.40;;;;;;5066729;28;20036;-93
2023/07/11 11:21:18;;;;;;;10.00;4.15;;;29.20;90.30;;;;;;5073487;28;20028;-92
2023/07/11 11:23:56;;;;;;;7.25;4.00;;;29.30;90.10;;;;;;5075467;28;20016;-88
2023/07/11 11:26:45;;;;;;;7.00;3.90;;;29.30;90.00;;;;;;5074448;28;20028;-93
2023/07/11 11:29:27;;;;;;;8.95;4.10;;;29.30;90.10;;;;;;5073245;28;20024;-90
2023/07/11 11:32:01;;;;;;;5.82;4.18;;;29.40;89.40;;;;;;5071676;28;20050;-92
2023/07/11 11:34:48;;;;;;;6.75;3.60;;;29.50;89.30;;;;;;5073739;28;20024;-92
2023/07/11 11:37:45;;;;;;;5.70;3.42;;;29.50;89.20;;;;;;5068357;28;20044;-94
2023/07/11 11:40:23;;;;;;;6.70;3.50;;;29.60;89.10;;;;;;5075375;28;20040;-90
2023/07/11 11:42:55;;;;;;;5.80;3.67;;;29.70;87.90;;;;;;5073526;28;20028;-85
2023/07/11 11:45:24;;;;;;;7.22;4.10;;;29.80;87.40;;;;;;5072552;28;20059;-89
2023/07/11 11:47:52;;;;;;;9.23;4.03;;;29.90;88.90;;;;;;5073536;28;20020;-92
2023/07/11 11:50:20;;;;;;;8.82;4.03;;;30.00;87.90;;;;;;5075594;28;20041;-90
2023/07/11 11:52:53;;;;;;;7.72;3.75;;;30.10;86.60;;;;;;5072487;28;20124;-88
2023/07/11 11:55:36;;;;;;;5.60;3.42;;;30.10;85.50;;;;;;5059156;28;20118;-91
2023/07/11 11:58:04;;;;;;;6.25;3.83;;;30.10;85.10;;;;;;5074461;28;20025;-93
2023/07/11 12:00:46;;;;;;;7.22;3.72;;;30.20;85.10;;;;;;5074001;28;20021;-86
2023/07/11 12:03:31;;;;;;;6.70;3.85;;;30.30;85.10;;;;;;5073841;28;20029;-89
2023/07/11 12:06:00;;;;;;;6.90;4.15;;;30.30;86.00;;;;;;5064888;28;20025;-90
2023/07/11 12:08:34;;;;;;;6.13;3.75;;;30.40;85.70;;;;;;5073661;28;20013;-93
2023/07/11 12:11:06;;;;;;;6.53;3.70;;;30.50;85.70;;;;;;5071934;28;20040;-89
2023/07/11 12:13:33;;;;;;;7.00;3.85;;;30.50;85.80;;;;;;5072527;28;20021;-88
2023/07/11 12:16:06;;;;;;;5.55;4.20;;;30.60;85.20;;;;;;5071684;28;20032;-92
2023/07/11 12:18:41;;;;;;;6.68;3.88;;;30.60;85.80;;;;;;5073663;28;20063;-93
2023/07/11 12:21:13;;;;;;;6.75;4.15;;;30.70;84.40;;;;;;5075968;28;20516;-93
2023/07/11 12:23:47;;;;;;;6.22;4.00;;;30.80;83.90;;;;;;5073807;28;20107;-92
2023/07/11 12:26:22;;;;;;;8.32;3.60;;;30.80;83.60;;;;;;5058020;28;20128;-92
2023/07/11 12:28:48;;;;;;;6.25;3.70;;;30.90;83.10;;;;;;5072101;28;20021;-90
2023/07/11 12:31:22;;;;;;;9.00;3.92;;;31.00;83.60;;;;;;5071947;28;20036;-94
2023/07/11 12:34:02;;;;;;;9.35;4.15;;;31.00;82.60;;;;;;5071722;28;20070;-91
2023/07/11 12:37:07;;;;;;;5.45;3.72;;;31.10;81.70;;;;;;5067523;28;20032;-93
2023/07/11 12:39:48;;;;;;;5.50;3.72;;;31.20;81.80;;;;;;5082241;28;20056;-92
2023/07/11 12:42:49;;;;;;;5.72;4.30;;;31.30;81.20;;;;;;5072125;28;20075;-87
2023/07/11 12:45:17;;;;;;;9.05;3.80;;;31.30;81.00;;;;;;5069626;28;20041;-94
2023/07/11 12:47:45;;;;;;;5.20;3.78;;;31.40;81.10;;;;;;5076553;28;20060;-84
2023/07/11 12:50:21;;;;;;;6.10;4.07;;;31.50;81.50;;;;;;5075475;28;20096;-89
2023/07/11 12:52:57;;;;;;;7.18;3.67;;;31.50;81.10;;;;;;5078703;28;20115;-86
2023/07/11 12:55:23;;;;;;;5.57;3.80;;;31.50;80.30;;;;;;5060107;28;20032;-93
2023/07/11 12:57:48;;;;;;;6.00;4.03;;;31.60;80.50;;;;;;5074725;28;20094;-85
2023/07/11 13:00:20;;;;;;;5.07;3.75;;;31.60;80.20;;;;;;5075363;28;20017;-90